createdAt,value
2023-04-14T00:01:37.133Z,13.15
2023-04-14T00:04:03.962Z,13.11
2023-04-14T00:06:31.306Z,13.05
2023-04-14T00:08:58.124Z,13.03
2023-04-14T00:11:24.856Z,13.01
2023-04-14T00:13:51.581Z,12.97
2023-04-14T00:16:18.112Z,12.93
2023-04-14T00:18:44.770Z,12.92
2023-04-14T00:21:11.228Z,12.90
2023-04-14T00:23:37.829Z,12.88
2023-04-14T00:26:04.981Z,12.86
2023-04-14T00:28:31.430Z,12.85
2023-04-14T00:30:57.832Z,12.85
2023-04-14T00:33:24.263Z,12.83
2023-04-14T00:35:50.933Z,12.79
2023-04-14T00:38:17.370Z,12.76
2023-04-14T00:40:43.827Z,12.74
2023-04-14T00:43:10.504Z,12.70
2023-04-14T00:45:44.700Z,12.65
2023-04-14T00:48:12.381Z,12.66
2023-04-14T00:50:39.278Z,12.64
2023-04-14T00:53:05.933Z,12.64
2023-04-14T00:55:33.408Z,12.64
2023-04-14T00:58:01.147Z,12.65
2023-04-14T01:00:28.410Z,12.66
2023-04-14T01:02:55.159Z,12.70
2023-04-14T01:05:21.726Z,12.70
2023-04-14T01:07:49.603Z,12.69
2023-04-14T01:10:16.791Z,12.70
2023-04-14T01:12:46.355Z,12.68
2023-04-14T01:15:34.194Z,12.66
2023-04-14T01:18:15.206Z,12.70
2023-04-14T01:20:44.429Z,12.73
2023-04-14T01:23:21.613Z,12.72
2023-04-14T01:26:09.733Z,12.73
2023-04-14T01:28:55.592Z,12.73
2023-04-14T01:31:37.266Z,12.77
2023-04-14T01:34:14.544Z,12.72
2023-04-14T01:36:51.034Z,12.72
2023-04-14T01:39:21.055Z,12.72
2023-04-14T01:41:52.555Z,12.70
2023-04-14T01:44:22.581Z,12.69
2023-04-14T01:46:56.636Z,12.67
2023-04-14T01:49:24.323Z,12.67
2023-04-14T01:51:52.813Z,12.67
2023-04-14T01:54:20.790Z,12.67
2023-04-14T01:56:52.268Z,12.69
2023-04-14T01:59:21.009Z,12.66
2023-04-14T02:01:50.845Z,12.63
2023-04-14T02:04:22.393Z,12.62
2023-04-14T02:06:51.762Z,12.60
2023-04-14T02:09:20.716Z,12.58
2023-04-14T02:11:50.347Z,12.57
2023-04-14T02:14:19.108Z,12.57
2023-04-14T02:16:48.641Z,12.57
2023-04-14T02:19:19.650Z,12.58
2023-04-14T02:21:49.952Z,12.59
2023-04-14T02:24:16.899Z,12.60
2023-04-14T02:26:56.151Z,12.57
2023-04-14T02:29:24.865Z,12.58
2023-04-14T02:32:06.432Z,12.55
2023-04-14T02:34:47.929Z,12.54
2023-04-14T02:37:22.252Z,12.55
2023-04-14T02:39:56.844Z,12.54
2023-04-14T02:42:26.972Z,12.53
2023-04-14T02:45:02.828Z,12.51
2023-04-14T02:47:34.106Z,12.50
2023-04-14T02:50:03.016Z,12.50
2023-04-14T02:52:31.931Z,12.48
2023-04-14T02:55:00.014Z,12.48
2023-04-14T02:57:27.940Z,12.47
2023-04-14T02:59:57.422Z,12.45
2023-04-14T03:02:25.222Z,12.43
2023-04-14T03:04:53.404Z,12.42
2023-04-14T03:07:21.950Z,12.39
2023-04-14T03:09:51.751Z,12.39
2023-04-14T03:12:21.991Z,12.39
2023-04-14T03:14:49.415Z,12.39
2023-04-14T03:17:18.183Z,12.35
2023-04-14T03:19:48.410Z,12.32
2023-04-14T03:22:17.301Z,12.30
2023-04-14T03:24:44.684Z,12.28
2023-04-14T03:27:15.469Z,12.24
2023-04-14T03:29:48.152Z,12.21
2023-04-14T03:32:17.565Z,12.20
2023-04-14T03:34:48.349Z,12.18
2023-04-14T03:37:17.937Z,12.18
2023-04-14T03:39:47.400Z,12.17
2023-04-14T03:42:14.320Z,12.15
2023-04-14T03:44:46.875Z,12.12
2023-04-14T03:47:14.804Z,12.13
2023-04-14T03:49:47.009Z,12.12
2023-04-14T03:52:16.110Z,12.11
2023-04-14T03:54:44.746Z,12.09
2023-04-14T03:57:13.525Z,12.07
2023-04-14T03:59:41.412Z,12.06
2023-04-14T04:02:12.025Z,12.04
2023-04-14T04:04:40.668Z,12.02
2023-04-14T04:07:10.661Z,12.01
2023-04-14T04:09:39.073Z,12.00
2023-04-14T04:12:07.669Z,12.00
2023-04-14T04:14:38.508Z,11.99
2023-04-14T04:17:07.831Z,11.98
2023-04-14T04:19:36.316Z,12.00
2023-04-14T04:22:03.930Z,12.01
2023-04-14T04:24:36.913Z,12.02
2023-04-14T04:27:04.470Z,12.00
2023-04-14T04:29:33.310Z,11.98
2023-04-14T04:32:00.940Z,11.96
2023-04-14T04:34:31.915Z,11.95
2023-04-14T04:37:01.457Z,11.92
2023-04-14T04:39:29.812Z,11.91
2023-04-14T04:42:06.567Z,11.88
2023-04-14T04:44:33.888Z,11.89
2023-04-14T04:47:01.139Z,11.87
2023-04-14T04:49:28.303Z,11.87
2023-04-14T04:51:56.482Z,11.85
2023-04-14T04:54:23.120Z,11.85
2023-04-14T04:56:50.200Z,11.85
2023-04-14T04:59:16.586Z,11.82
2023-04-14T05:01:44.230Z,11.82
2023-04-14T05:04:11.130Z,11.79
2023-04-14T05:06:38.470Z,11.78
2023-04-14T05:09:05.007Z,11.78
2023-04-14T05:11:32.451Z,11.77
2023-04-14T05:13:58.793Z,11.78
2023-04-14T05:16:26.177Z,11.79
2023-04-14T05:18:52.544Z,11.79
2023-04-14T05:21:19.639Z,11.80
2023-04-14T05:23:47.187Z,11.82
2023-04-14T05:26:38.910Z,11.83
2023-04-14T05:29:03.144Z,11.87
2023-04-14T05:31:29.899Z,11.90
2023-04-14T05:33:56.400Z,11.93
2023-04-14T05:36:22.747Z,11.95
2023-04-14T05:38:51.386Z,11.98
2023-04-14T05:41:17.772Z,12.01
2023-04-14T05:43:44.099Z,12.04
2023-04-14T05:46:10.468Z,12.08
2023-04-14T05:48:38.100Z,12.14
2023-04-14T05:51:04.544Z,12.20
2023-04-14T05:53:30.881Z,12.27
2023-04-14T05:55:57.252Z,12.33
2023-04-14T05:58:24.827Z,12.41
2023-04-14T06:01:01.538Z,12.49
2023-04-14T06:03:28.188Z,12.59
2023-04-14T06:05:55.172Z,12.64
2023-04-14T06:08:22.673Z,12.71
2023-04-14T06:10:50.532Z,12.79
2023-04-14T06:13:18.614Z,12.85
2023-04-14T06:15:45.269Z,12.92
2023-04-14T06:18:11.661Z,12.97
2023-04-14T06:20:38.029Z,13.02
2023-04-14T06:23:08.508Z,13.07
2023-04-14T06:25:35.169Z,13.13
2023-04-14T06:28:04.010Z,13.18
2023-04-14T06:30:32.247Z,13.25
2023-04-14T06:32:59.492Z,13.30
2023-04-14T06:35:33.001Z,13.39
2023-04-14T06:38:01.399Z,13.43
2023-04-14T06:40:32.709Z,13.46
2023-04-14T06:42:59.087Z,13.53
2023-04-14T06:45:32.662Z,13.54
2023-04-14T06:47:59.041Z,13.58
2023-04-14T06:50:25.878Z,13.63
2023-04-14T06:52:52.211Z,13.66
2023-04-14T06:55:21.827Z,13.68
2023-04-14T06:57:50.185Z,13.72
2023-04-14T07:00:19.750Z,13.76
2023-04-14T07:02:46.165Z,13.82
2023-04-14T07:05:12.663Z,13.87
2023-04-14T07:07:45.326Z,13.94
2023-04-14T07:10:12.569Z,14.00
2023-04-14T07:12:39.016Z,14.07
2023-04-14T07:15:06.006Z,14.12
2023-04-14T07:17:32.694Z,14.21
2023-04-14T07:19:59.427Z,14.28
2023-04-14T07:22:26.130Z,14.36
2023-04-14T07:24:53.677Z,14.44
2023-04-14T07:27:20.228Z,14.54
2023-04-14T07:29:47.400Z,14.65
2023-04-14T07:32:14.097Z,14.74
2023-04-14T07:34:43.578Z,14.84
2023-04-14T07:37:11.663Z,14.97
2023-04-14T07:39:40.092Z,15.08
2023-04-14T07:42:06.630Z,15.22
2023-04-14T07:44:35.868Z,15.35
2023-04-14T07:47:03.422Z,15.53
2023-04-14T07:49:30.087Z,15.68
2023-04-14T07:51:56.818Z,15.87
2023-04-14T07:54:23.822Z,16.05
2023-04-14T07:56:51.266Z,16.23
2023-04-14T07:59:17.637Z,16.43
2023-04-14T08:01:46.408Z,16.59
2023-04-14T08:04:13.569Z,16.78
2023-04-14T08:06:40.271Z,17.01
2023-04-14T08:09:09.801Z,17.24
2023-04-14T08:11:36.226Z,17.50
2023-04-14T08:14:04.420Z,17.76
2023-04-14T08:16:30.922Z,18.02
2023-04-14T08:18:58.206Z,18.26
2023-04-14T08:21:24.650Z,18.49
2023-04-14T08:23:54.747Z,18.69
2023-04-14T08:26:21.320Z,18.89
2023-04-14T08:28:47.709Z,19.05
2023-04-14T08:31:14.431Z,19.13
2023-04-14T08:33:41.028Z,19.19
2023-04-14T08:36:07.646Z,19.22
2023-04-14T08:38:36.860Z,19.23
2023-04-14T08:41:06.864Z,19.23
2023-04-14T08:43:33.901Z,19.27
2023-04-14T08:46:01.973Z,19.25
2023-04-14T08:48:32.067Z,19.25
2023-04-14T08:51:31.935Z,19.21
2023-04-14T08:54:01.052Z,19.24
2023-04-14T08:56:34.962Z,19.24
2023-04-14T08:59:08.105Z,19.22
2023-04-14T09:01:38.088Z,19.24
2023-04-14T09:04:06.599Z,19.25
2023-04-14T09:06:38.695Z,19.26
2023-04-14T09:09:07.756Z,19.27
2023-04-14T09:11:34.540Z,19.29
2023-04-14T09:14:02.243Z,19.30
2023-04-14T09:16:29.569Z,19.29
2023-04-14T09:18:57.519Z,19.26
2023-04-14T09:21:53.589Z,19.26
2023-04-14T09:24:24.935Z,19.24
2023-04-14T09:26:52.159Z,19.24
2023-04-14T09:29:18.724Z,19.24
2023-04-14T09:31:46.060Z,19.23
2023-04-14T09:34:18.140Z,19.21
2023-04-14T09:37:05.555Z,19.20
2023-04-14T09:39:36.640Z,19.25
2023-04-14T09:42:04.822Z,19.23
2023-04-14T09:44:31.231Z,19.23
2023-04-14T09:47:02.909Z,19.18
2023-04-14T09:49:30.105Z,19.17
2023-04-14T09:52:08.293Z,19.12
2023-04-14T09:54:35.639Z,19.14
2023-04-14T09:57:02.517Z,19.16
2023-04-14T09:59:37.046Z,19.14
2023-04-14T10:02:06.456Z,19.16
2023-04-14T10:04:33.575Z,19.20
2023-04-14T10:07:00.428Z,19.23
2023-04-14T10:09:29.882Z,19.26
2023-04-14T10:12:16.227Z,19.29
2023-04-14T10:14:43.888Z,19.37
2023-04-14T10:17:10.724Z,19.43
2023-04-14T10:19:38.983Z,19.47
2023-04-14T10:22:06.136Z,19.48
2023-04-14T10:24:32.899Z,19.49
2023-04-14T10:27:02.829Z,19.49
2023-04-14T10:29:30.947Z,19.51
2023-04-14T10:32:06.053Z,19.52
2023-04-14T10:34:33.640Z,19.59
2023-04-14T10:37:15.639Z,19.59
2023-04-14T10:39:43.564Z,19.63
2023-04-14T10:42:10.233Z,19.67
2023-04-14T10:44:36.903Z,19.70
2023-04-14T10:47:06.104Z,19.74
2023-04-14T10:49:34.633Z,19.77
2023-04-14T10:52:25.157Z,19.84
2023-04-14T10:54:53.295Z,19.91
2023-04-14T10:57:27.081Z,19.90
2023-04-14T10:59:55.582Z,19.89
2023-04-14T11:02:54.404Z,19.85
2023-04-14T11:05:21.484Z,19.87
2023-04-14T11:07:51.777Z,19.86
2023-04-14T11:10:27.080Z,19.85
2023-04-14T11:13:26.367Z,19.85
2023-04-14T11:16:09.192Z,19.85
2023-04-14T11:18:45.637Z,19.86
2023-04-14T11:21:15.764Z,19.87
2023-04-14T11:23:44.996Z,19.86
2023-04-14T11:26:14.475Z,19.87
2023-04-14T11:28:43.446Z,19.87
2023-04-14T11:31:12.024Z,19.88
2023-04-14T11:33:39.692Z,19.93
2023-04-14T11:36:07.496Z,19.99
2023-04-14T11:38:40.902Z,19.98
2023-04-14T11:41:10.681Z,19.99
2023-04-14T11:43:37.938Z,20.00
2023-04-14T11:46:05.984Z,20.01
2023-04-14T11:48:32.437Z,20.05
2023-04-14T11:51:03.256Z,20.08
2023-04-14T11:53:30.398Z,20.12
2023-04-14T11:56:00.712Z,20.15
2023-04-14T11:58:28.648Z,20.20
2023-04-14T12:00:57.789Z,20.24
2023-04-14T12:03:29.278Z,20.25
2023-04-14T12:06:01.277Z,20.29
2023-04-14T12:08:30.299Z,20.33
2023-04-14T12:10:57.564Z,20.39
2023-04-14T12:13:24.800Z,20.43
2023-04-14T12:15:52.746Z,20.47
2023-04-14T12:20:56.217Z,20.50
2023-04-14T12:23:23.479Z,20.57
2023-04-14T12:25:50.570Z,20.59
2023-04-14T12:28:29.997Z,20.60
2023-04-14T12:30:59.740Z,20.61
2023-04-14T12:33:28.068Z,20.63
2023-04-14T12:36:15.474Z,20.63
2023-04-14T12:38:42.904Z,20.70
2023-04-14T12:41:10.654Z,20.73
2023-04-14T12:43:38.486Z,20.75
2023-04-14T12:46:07.841Z,20.78
2023-04-14T12:48:44.328Z,20.81
2023-04-14T12:51:17.431Z,20.87
2023-04-14T12:53:46.418Z,20.90
2023-04-14T12:56:19.767Z,20.91
2023-04-14T12:58:47.360Z,20.95
2023-04-14T13:01:19.018Z,20.95
2023-04-14T13:03:54.311Z,20.98
2023-04-14T13:06:23.159Z,21.02
2023-04-14T13:08:54.009Z,21.06
2023-04-14T13:11:22.170Z,21.09
2023-04-14T13:13:50.041Z,21.10
2023-04-14T13:16:18.473Z,21.12
2023-04-14T13:18:47.311Z,21.14
2023-04-14T13:21:14.480Z,21.14
2023-04-14T13:23:41.343Z,21.13
2023-04-14T13:26:07.818Z,21.12
2023-04-14T13:28:34.304Z,21.11
2023-04-14T13:31:01.181Z,21.06
2023-04-14T13:33:27.822Z,21.02
2023-04-14T13:35:55.621Z,20.99
2023-04-14T13:38:22.547Z,20.97
2023-04-14T13:40:49.298Z,20.94
2023-04-14T13:43:18.437Z,20.91
2023-04-14T13:45:45.260Z,20.90
2023-04-14T13:48:11.681Z,20.88
2023-04-14T13:50:38.070Z,20.88
2023-04-14T13:53:04.430Z,20.90
2023-04-14T13:55:31.049Z,20.90
2023-04-14T13:57:57.352Z,20.91
2023-04-14T14:00:23.880Z,20.91
2023-04-14T14:02:52.064Z,20.93
2023-04-14T14:05:18.712Z,20.93
2023-04-14T14:07:45.274Z,20.94
2023-04-14T14:10:12.024Z,20.95
2023-04-14T14:12:38.360Z,20.96
2023-04-14T14:15:05.736Z,20.97
2023-04-14T14:17:32.285Z,20.98
2023-04-14T14:19:59.215Z,21.00
2023-04-14T14:22:32.345Z,21.01
2023-04-14T14:25:10.673Z,21.04
2023-04-14T14:27:37.808Z,21.07
2023-04-14T14:30:04.535Z,21.08
2023-04-14T14:32:31.130Z,21.08
2023-04-14T14:34:58.881Z,21.10
2023-04-14T14:37:25.230Z,21.10
2023-04-14T14:39:51.969Z,21.10
2023-04-14T14:42:18.606Z,21.11
2023-04-14T14:44:45.034Z,21.10
2023-04-14T14:47:11.525Z,21.09
2023-04-14T14:49:43.362Z,21.07
2023-04-14T14:52:15.838Z,21.07
2023-04-14T14:54:42.121Z,21.07
2023-04-14T14:57:08.465Z,21.07
2023-04-14T14:59:34.883Z,21.07
2023-04-14T15:02:01.649Z,21.09
2023-04-14T15:04:28.058Z,21.09
2023-04-14T15:06:54.637Z,21.11
2023-04-14T15:09:21.249Z,21.13
2023-04-14T15:11:47.651Z,21.15
2023-04-14T15:14:14.243Z,21.17
2023-04-14T15:16:40.622Z,21.17
2023-04-14T15:19:07.280Z,21.16
2023-04-14T15:21:34.219Z,21.17
2023-04-14T15:24:01.924Z,21.15
2023-04-14T15:26:28.782Z,21.15
2023-04-14T15:28:55.796Z,21.14
2023-04-14T15:31:22.150Z,21.13
2023-04-14T15:33:48.600Z,21.10
2023-04-14T15:36:14.939Z,21.07
2023-04-14T15:38:41.489Z,21.05
2023-04-14T15:41:08.146Z,21.04
2023-04-14T15:43:34.701Z,21.02
2023-04-14T15:46:01.202Z,21.01
2023-04-14T15:48:29.594Z,21.00
2023-04-14T15:50:56.187Z,21.01
2023-04-14T15:53:22.652Z,20.98
2023-04-14T15:55:49.953Z,20.99
2023-04-14T15:58:16.329Z,20.96
2023-04-14T16:00:42.916Z,20.95
2023-04-14T16:03:09.507Z,20.95
2023-04-14T16:05:36.135Z,20.93
2023-04-14T16:08:02.504Z,20.92
2023-04-14T16:10:29.207Z,20.90
2023-04-14T16:12:55.629Z,20.89
2023-04-14T16:15:22.984Z,20.89
2023-04-14T16:17:49.674Z,20.88
2023-04-14T16:20:18.221Z,20.88
2023-04-14T16:22:44.652Z,20.90
2023-04-14T16:25:11.213Z,20.89
2023-04-14T16:27:38.591Z,20.89
2023-04-14T16:30:05.913Z,20.89
2023-04-14T16:32:32.332Z,20.90
2023-04-14T16:34:58.742Z,20.91
2023-04-14T16:37:26.292Z,20.92
2023-04-14T16:39:56.429Z,20.91
2023-04-14T16:42:24.506Z,20.94
2023-04-14T16:44:54.608Z,20.96
2023-04-14T16:47:21.686Z,20.97
2023-04-14T16:49:50.300Z,20.99
2023-04-14T16:52:16.560Z,21.01
2023-04-14T16:54:43.790Z,21.06
2023-04-14T16:57:10.659Z,21.04
2023-04-14T16:59:37.203Z,21.03
2023-04-14T17:02:03.713Z,21.01
2023-04-14T17:04:30.337Z,20.97
2023-04-14T17:06:57.136Z,20.92
2023-04-14T17:09:23.719Z,20.83
2023-04-14T17:11:50.081Z,20.71
2023-04-14T17:14:16.851Z,20.59
2023-04-14T17:16:43.263Z,20.46
2023-04-14T17:19:09.904Z,20.31
2023-04-14T17:21:38.540Z,20.16
2023-04-14T17:26:31.566Z,19.90
2023-04-14T17:28:57.970Z,19.80
2023-04-14T17:31:24.447Z,19.73
2023-04-14T17:33:51.371Z,19.65
2023-04-14T17:36:18.348Z,19.59
2023-04-14T17:38:45.748Z,19.56
2023-04-14T17:41:12.985Z,19.51
2023-04-14T17:43:41.154Z,19.49
2023-04-14T17:46:10.831Z,19.47
2023-04-14T17:48:37.505Z,19.48
2023-04-14T17:51:04.836Z,19.46
2023-04-14T17:53:31.357Z,19.46
2023-04-14T17:55:57.953Z,19.47
2023-04-14T17:58:25.315Z,19.48
2023-04-14T18:00:52.046Z,19.46
2023-04-14T18:03:18.703Z,19.45
2023-04-14T18:05:45.382Z,19.44
2023-04-14T18:08:12.078Z,19.41
2023-04-14T18:10:39.178Z,19.37
2023-04-14T18:13:05.623Z,19.35
2023-04-14T18:15:32.408Z,19.31
2023-04-14T18:17:58.810Z,19.28
2023-04-14T18:20:26.594Z,19.26
2023-04-14T18:22:57.580Z,19.23
2023-04-14T18:25:23.954Z,19.19
2023-04-14T18:30:20.236Z,19.11
2023-04-14T18:32:46.674Z,19.06
2023-04-14T18:35:13.474Z,19.02
2023-04-14T18:37:39.839Z,18.97
2023-04-14T18:40:07.046Z,18.93
2023-04-14T18:42:36.040Z,18.89
2023-04-14T18:45:03.743Z,18.87
2023-04-14T18:47:30.342Z,18.83
2023-04-14T18:49:56.842Z,18.80
2023-04-14T18:52:23.153Z,18.77
2023-04-14T18:54:49.626Z,18.74
2023-04-14T18:57:16.297Z,18.71
2023-04-14T18:59:42.868Z,18.68
2023-04-14T19:02:13.209Z,18.66
2023-04-14T19:04:40.976Z,18.63
2023-04-14T19:07:08.099Z,18.60
2023-04-14T19:09:36.080Z,18.57
2023-04-14T19:12:02.804Z,18.55
2023-04-14T19:14:29.661Z,18.53
2023-04-14T19:16:56.318Z,18.49
2023-04-14T19:19:22.696Z,18.46
2023-04-14T19:21:49.017Z,18.45
2023-04-14T19:24:15.426Z,18.40
2023-04-14T19:26:41.782Z,18.38
2023-04-14T19:29:08.415Z,18.34
2023-04-14T19:31:35.039Z,18.33
2023-04-14T19:34:01.497Z,18.31
2023-04-14T19:36:29.094Z,18.30
2023-04-14T19:38:56.114Z,18.30
2023-04-14T19:41:22.492Z,18.28
2023-04-14T19:43:48.977Z,18.28
2023-04-14T19:46:16.840Z,18.26
2023-04-14T19:48:44.529Z,18.24
2023-04-14T19:51:11.345Z,18.26
2023-04-14T19:53:37.733Z,18.24
2023-04-14T19:56:05.659Z,18.20
2023-04-14T19:58:32.837Z,18.17
2023-04-14T20:01:01.185Z,18.14
2023-04-14T20:03:28.199Z,18.12
2023-04-14T20:05:56.602Z,18.09
2023-04-14T20:08:25.078Z,18.08
2023-04-14T20:10:53.216Z,18.05
2023-04-14T20:13:21.311Z,18.06
2023-04-14T20:15:49.374Z,18.02
2023-04-14T20:18:17.738Z,17.95
2023-04-14T20:20:45.106Z,17.90
2023-04-14T20:23:11.548Z,17.86
2023-04-14T20:25:38.818Z,17.81
2023-04-14T20:28:07.376Z,17.78
2023-04-14T20:30:33.971Z,17.77
2023-04-14T20:33:04.347Z,17.79
2023-04-14T20:35:31.069Z,17.74
2023-04-14T20:37:57.433Z,17.69
2023-04-14T20:40:24.093Z,17.67
2023-04-14T20:42:50.726Z,17.64
2023-04-14T20:45:17.451Z,17.61
2023-04-14T20:47:43.889Z,17.59
2023-04-14T20:50:10.500Z,17.56
2023-04-14T20:52:37.134Z,17.55
2023-04-14T20:55:03.857Z,17.54
2023-04-14T20:57:30.245Z,17.53
2023-04-14T20:59:56.680Z,17.52
2023-04-14T21:02:23.283Z,17.50
2023-04-14T21:04:50.149Z,17.51
2023-04-14T21:07:17.075Z,17.48
2023-04-14T21:09:43.702Z,17.50
2023-04-14T21:12:14.349Z,17.49
2023-04-14T21:15:30.902Z,17.47
2023-04-14T21:17:29.213Z,17.46
2023-04-14T21:19:55.999Z,17.44
2023-04-14T21:22:22.570Z,17.42
2023-04-14T21:24:49.577Z,17.41
2023-04-14T21:27:17.465Z,17.38
2023-04-14T21:29:44.643Z,17.37
2023-04-14T21:32:11.950Z,17.36
2023-04-14T21:34:38.465Z,17.34
2023-04-14T21:37:04.914Z,17.32
2023-04-14T21:39:33.219Z,17.30
2023-04-14T21:42:02.044Z,17.27
2023-04-14T21:44:28.593Z,17.23
2023-04-14T21:46:55.700Z,17.21
2023-04-14T21:49:22.492Z,17.17
2023-04-14T21:51:52.514Z,17.12
2023-04-14T21:54:19.528Z,17.11
2023-04-14T21:56:46.194Z,17.07
2023-04-14T21:59:12.571Z,17.05
2023-04-14T22:01:39.792Z,17.00
2023-04-14T22:04:06.585Z,16.97
2023-04-14T22:06:35.227Z,16.92
2023-04-14T22:09:01.841Z,16.90
2023-04-14T22:11:30.731Z,16.89
2023-04-14T22:13:58.256Z,16.82
2023-04-14T22:16:25.426Z,16.78
2023-04-14T22:18:52.062Z,16.73
2023-04-14T22:21:18.536Z,16.68
2023-04-14T22:23:45.210Z,16.65
2023-04-14T22:26:12.778Z,16.62
2023-04-14T22:28:39.914Z,16.59
2023-04-14T22:31:06.830Z,16.57
2023-04-14T22:33:33.491Z,16.54
2023-04-14T22:36:05.698Z,16.49
2023-04-14T22:38:33.717Z,16.48
2023-04-14T22:41:01.581Z,16.45
2023-04-14T22:43:29.751Z,16.43
2023-04-14T22:45:56.740Z,16.40
2023-04-14T22:48:23.355Z,16.38
2023-04-14T22:50:49.928Z,16.35
2023-04-14T22:53:16.290Z,16.33
2023-04-14T22:55:43.296Z,16.31
2023-04-14T22:58:16.141Z,16.29
2023-04-14T23:00:44.196Z,16.28
2023-04-14T23:03:11.599Z,16.25
2023-04-14T23:05:39.116Z,16.22
2023-04-14T23:08:05.864Z,16.19
2023-04-14T23:10:32.485Z,16.15
2023-04-14T23:12:59.144Z,16.13
2023-04-14T23:15:25.941Z,16.10
2023-04-14T23:17:52.299Z,16.06
2023-04-14T23:20:19.303Z,16.03
2023-04-14T23:22:46.143Z,16.00
2023-04-14T23:25:12.758Z,15.94
2023-04-14T23:27:39.284Z,15.89
2023-04-14T23:30:06.667Z,15.85
2023-04-14T23:32:33.106Z,15.83
2023-04-14T23:34:59.763Z,15.80
2023-04-14T23:37:26.146Z,15.78
2023-04-14T23:39:52.523Z,15.74
2023-04-14T23:42:18.852Z,15.72
2023-04-14T23:44:45.508Z,15.69
2023-04-14T23:47:12.151Z,15.66
2023-04-14T23:49:38.877Z,15.60
2023-04-14T23:52:05.782Z,15.58
2023-04-14T23:54:32.612Z,15.53
2023-04-14T23:56:58.939Z,15.51
2023-04-14T23:59:25.326Z,15.47
